Time;durP1;ratioP1;P1;durP2;ratioP2;P2;SDS_P1;SDS_P2;PMS_P1;PMS_P2;Temp;Humidity;BMP_temperature;BMP_pressure;BME280_temperature;BME280_humidity;BME280_pressure;Samples;Min_cycle;Max_cycle;Signal;HPM_P1;HPM_P2
2022/08/08 00:01:40;;;;;;;29.25;11.88;;;;;;;20.46;64.67;100254.69;5000098;28;20091;-71
2022/08/08 00:04:33;;;;;;;30.25;13.43;;;;;;;20.40;64.89;100253.28;5026727;28;20049;-71
2022/08/08 00:07:16;;;;;;;25.90;13.20;;;;;;;20.25;64.98;100244.28;5039540;28;20128;-70
2022/08/08 00:10:02;;;;;;;23.38;11.07;;;;;;;19.80;65.17;100184.84;5027184;28;20108;-71
2022/08/08 00:12:36;;;;;;;26.77;13.43;;;;;;;20.15;65.29;100243.94;5030665;28;20100;-71
2022/08/08 00:15:22;;;;;;;32.72;15.05;;;;;;;20.20;65.81;100249.34;5029742;28;20095;-71
2022/08/08 00:18:25;;;;;;;25.55;13.90;;;;;;;20.28;65.75;100242.75;5028355;28;20050;-71
2022/08/08 00:20:57;;;;;;;26.95;12.57;;;;;;;20.44;65.94;100245.72;5025828;28;20519;-72
2022/08/08 00:23:32;;;;;;;39.17;14.77;;;;;;;20.56;65.50;100255.06;5031640;28;20491;-72
2022/08/08 00:26:38;;;;;;;25.25;12.77;;;;;;;20.11;65.31;100151.09;5027466;28;20085;-72
2022/08/08 00:29:21;;;;;;;27.90;13.35;;;;;;;20.36;65.31;100182.25;5027363;28;20100;-72
2022/08/08 00:32:20;;;;;;;27.67;13.15;;;;;;;20.51;65.21;100184.41;5023154;28;20520;-72
2022/08/08 00:35:10;;;;;;;24.75;12.48;;;;;;;20.82;65.17;100222.66;5026112;28;20417;-72
2022/08/08 00:38:20;;;;;;;26.63;12.63;;;;;;;20.39;65.12;100180.72;5030055;28;20045;-71
2022/08/08 00:41:13;;;;;;;26.30;12.60;;;;;;;20.53;65.32;100233.09;5030270;28;20048;-72
2022/08/08 00:44:03;;;;;;;30.48;15.05;;;;;;;20.62;65.46;100237.84;5027918;28;20069;-72
2022/08/08 00:46:36;;;;;;;31.40;14.70;;;;;;;20.78;65.34;100238.72;5006462;28;20053;-72
2022/08/08 00:49:57;;;;;;;34.80;15.20;;;;;;;20.85;65.10;100229.63;5026062;28;20042;-71
2022/08/08 00:52:46;;;;;;;33.72;15.85;;;;;;;20.84;65.07;100225.97;5030466;28;20129;-73
2022/08/08 00:55:51;;;;;;;35.40;16.65;;;;;;;20.92;65.00;100219.34;5029343;28;20390;-71
2022/08/08 00:58:45;;;;;;;;;;;;;;;21.00;64.82;100221.19;5005257;28;20057;-71
2022/08/08 01:01:25;;;;;;;35.30;15.73;;;;;;;20.75;64.69;100199.72;5020297;28;20276;-72
2022/08/08 01:04:39;;;;;;;37.13;15.85;;;;;;;20.91;64.80;100220.50;5022285;28;20055;-72
2022/08/08 01:07:45;;;;;;;39.53;17.52;;;;;;;20.93;64.58;100217.31;5026052;28;20053;-71
2022/08/08 01:10:53;;;;;;;33.85;14.48;;;;;;;20.78;64.83;100210.34;5029397;28;20045;-71
2022/08/08 01:13:53;;;;;;;41.03;15.10;;;;;;;20.58;64.97;100212.16;5026366;28;20056;-71
2022/08/08 01:16:46;;;;;;;70.50;16.95;;;;;;;20.47;64.82;100211.78;5025678;28;20429;-71
2022/08/08 01:19:48;;;;;;;37.13;14.63;;;;;;;20.28;65.02;100208.75;5021215;28;20055;-71
2022/08/08 01:23:02;;;;;;;38.17;16.40;;;;;;;20.16;65.16;100211.56;5031457;28;20053;-70
2022/08/08 01:26:06;;;;;;;47.58;16.50;;;;;;;20.09;65.59;100204.47;5024655;28;20127;-71
2022/08/08 01:29:07;;;;;;;38.35;15.68;;;;;;;20.00;65.50;100203.78;5035262;28;20575;-70
2022/08/08 01:31:59;;;;;;;53.75;16.85;;;;;;;19.94;65.51;100193.00;5021465;28;20042;-70
2022/08/08 01:34:52;;;;;;;43.22;16.70;;;;;;;19.90;65.70;100209.91;5023255;28;20057;-71
2022/08/08 01:37:43;;;;;;;44.22;17.92;;;;;;;19.84;65.96;100192.28;5024271;28;20110;-71
2022/08/08 01:40:36;;;;;;;58.42;17.38;;;;;;;19.86;66.27;100191.91;5026767;28;20104;-70
2022/08/08 01:43:21;;;;;;;52.88;19.75;;;;;;;19.94;66.45;100193.84;5029348;28;20049;-69
2022/08/08 01:46:02;;;;;;;48.38;18.95;;;;;;;19.48;66.50;100116.53;5026307;28;20084;-71
2022/08/08 01:48:59;;;;;;;58.47;17.55;;;;;;;19.93;66.25;100194.16;5029280;28;20080;-71
2022/08/08 01:51:53;;;;;;;38.10;17.23;;;;;;;19.93;66.67;100191.34;5032559;28;20091;-71
2022/08/08 01:55:15;;;;;;;47.33;17.52;;;;;;;20.09;66.45;100190.28;5028025;28;20501;-71
2022/08/08 01:58:25;;;;;;;45.53;16.95;;;;;;;20.20;66.52;100201.16;5031184;28;20056;-70
2022/08/08 02:01:11;;;;;;;37.50;17.17;;;;;;;20.23;66.25;100192.78;5031050;28;20049;-71
2022/08/08 02:04:15;;;;;;;36.80;15.93;;;;;;;20.26;66.32;100177.88;5028701;28;20056;-71
2022/08/08 02:06:59;;;;;;;35.05;16.38;;;;;;;20.48;66.13;100190.78;5023584;28;20490;-71
2022/08/08 02:09:44;;;;;;;37.67;15.98;;;;;;;20.53;65.93;100182.03;5031747;28;20095;-72
2022/08/08 02:12:49;;;;;;;44.45;17.27;;;;;;;20.25;65.60;100130.06;5030839;28;20528;-72
2022/08/08 02:15:30;;;;;;;38.22;16.20;;;;;;;20.56;65.93;100184.16;5029604;28;20049;-72
2022/08/08 02:18:12;;;;;;;33.75;16.20;;;;;;;20.15;65.66;100141.88;5033414;28;20042;-72
2022/08/08 02:22:30;;;;;;;38.92;16.42;;;;;;;20.26;66.00;100171.41;5028716;28;20056;-72
2022/08/08 02:23:52;;;;;;;31.80;14.88;;;;;;;20.29;66.19;100182.03;5027834;28;20133;-72
2022/08/08 02:26:41;;;;;;;33.90;15.38;;;;;;;19.71;66.30;100104.78;5029485;28;20056;-73
2022/08/08 02:29:35;;;;;;;34.47;15.70;;;;;;;20.08;66.16;100182.16;5033689;28;20049;-72
2022/08/08 02:32:20;;;;;;;29.67;14.35;;;;;;;20.03;66.33;100182.38;5025855;28;20057;-72
2022/08/08 02:35:00;;;;;;;36.95;15.20;;;;;;;19.97;66.43;100178.97;5026550;28;20056;-72
2022/08/08 02:38:11;;;;;;;33.23;16.07;;;;;;;19.97;66.63;100178.13;5026087;28;20132;-70
2022/08/08 02:40:48;;;;;;;29.95;14.65;;;;;;;20.09;66.76;100181.78;5026826;28;20060;-72
2022/08/08 02:43:46;;;;;;;36.55;16.75;;;;;;;19.88;66.42;100127.22;5029055;28;20049;-71
2022/08/08 02:46:57;;;;;;;30.60;14.68;;;;;;;20.09;66.28;100169.63;5028299;28;20049;-71
2022/08/08 02:49:51;;;;;;;37.03;15.15;;;;;;;20.22;66.22;100193.13;5029680;28;20045;-72
2022/08/08 02:52:31;;;;;;;30.52;13.73;;;;;;;20.21;66.33;100186.66;5028292;28;20338;-70
2022/08/08 02:55:29;;;;;;;35.72;15.13;;;;;;;20.29;66.44;100196.22;5030564;28;20049;-70
2022/08/08 02:58:21;;;;;;;37.30;16.20;;;;;;;20.41;66.26;100206.72;5030840;28;20042;-71
2022/08/08 03:00:58;;;;;;;35.00;15.68;;;;;;;20.50;66.12;100198.91;5026531;28;20064;-71
2022/08/08 03:03:43;;;;;;;32.80;14.18;;;;;;;20.55;65.98;100207.22;5031520;28;20045;-71
2022/08/08 03:06:45;;;;;;;33.13;14.35;;;;;;;20.47;66.08;100183.41;5031060;28;20059;-72
2022/08/08 03:09:46;;;;;;;28.88;14.77;;;;;;;20.56;66.01;100181.31;5031544;28;20060;-72
2022/08/08 03:12:26;;;;;;;31.80;14.85;;;;;;;20.03;65.79;100098.19;5029295;28;20057;-72
2022/08/08 03:15:26;;;;;;;34.00;14.70;;;;;;;20.41;65.76;100158.50;5020056;28;20045;-72
2022/08/08 03:18:48;;;;;;;33.13;14.63;;;;;;;20.40;65.81;100160.50;5029130;28;20055;-72
2022/08/08 03:21:17;;;;;;;31.20;13.93;;;;;;;20.54;65.89;100188.53;5035454;28;20794;-72
2022/08/08 03:23:52;;;;;;;35.60;15.13;;;;;;;20.22;65.86;100128.75;5026465;28;20053;-72
2022/08/08 03:26:37;;;;;;;36.75;16.10;;;;;;;20.39;65.83;100153.19;5025132;28;20128;-71
2022/08/08 03:29:15;;;;;;;36.10;15.40;;;;;;;20.60;65.80;100178.59;5020891;28;20064;-71
2022/08/08 03:34:40;;;;;;;37.83;16.75;;;;;;;20.24;65.93;100129.22;5030668;28;20107;-71
2022/08/08 03:37:10;;;;;;;37.80;14.35;;;;;;;20.40;65.91;100165.34;5026110;28;20051;-70
2022/08/08 03:39:59;;;;;;;40.00;15.15;;;;;;;20.27;65.82;100170.19;5029491;28;20049;-71
2022/08/08 03:42:30;;;;;;;30.00;13.90;;;;;;;20.20;66.30;100167.97;5028338;28;20056;-72
2022/08/08 03:44:57;;;;;;;37.90;15.02;;;;;;;20.15;66.30;100164.56;5032118;28;20045;-72
2022/08/08 03:47:25;;;;;;;36.40;15.13;;;;;;;20.17;66.04;100163.03;5030065;28;20525;-72
2022/08/08 03:50:18;;;;;;;44.53;16.33;;;;;;;20.09;66.09;100144.13;5028303;28;20073;-72
2022/08/08 03:52:52;;;;;;;41.78;15.57;;;;;;;20.35;66.01;100180.63;5030760;28;20085;-72
2022/08/08 03:55:21;;;;;;;53.30;15.68;;;;;;;20.29;66.18;100187.69;5030072;28;20133;-71
2022/08/08 03:58:09;;;;;;;38.00;15.48;;;;;;;20.29;66.05;100176.34;5026800;28;20425;-71
2022/08/08 04:00:56;;;;;;;46.53;16.23;;;;;;;19.80;65.63;100125.34;5026564;28;20063;-72
2022/08/08 04:03:46;;;;;;;61.70;16.65;;;;;;;19.70;65.99;100114.47;5022353;28;20567;-72
2022/08/08 04:06:28;;;;;;;95.25;17.00;;;;;;;19.57;66.16;100111.59;5027210;28;20057;-71
2022/08/08 04:08:58;;;;;;;40.60;16.50;;;;;;;19.81;66.14;100167.47;5028906;28;20046;-71
2022/08/08 04:11:41;;;;;;;49.35;16.73;;;;;;;19.69;66.29;100144.78;5027592;28;20049;-71
2022/08/08 04:14:26;;;;;;;39.88;15.85;;;;;;;19.84;66.70;100163.13;5028557;28;20103;-71
2022/08/08 04:17:01;;;;;;;50.60;18.25;;;;;;;19.91;66.80;100171.03;5026617;28;20057;-71
2022/08/08 04:19:30;;;;;;;50.47;16.55;;;;;;;19.64;66.48;100120.38;5026378;28;20134;-71
2022/08/08 04:22:03;;;;;;;36.17;15.88;;;;;;;20.01;67.02;100174.22;5025629;28;20395;-71
2022/08/08 04:24:30;;;;;;;35.90;15.00;;;;;;;20.05;66.62;100178.00;5024926;28;20053;-71
2022/08/08 04:27:00;;;;;;;35.35;15.30;;;;;;;19.82;66.76;100128.63;5028649;28;20148;-71
2022/08/08 04:29:28;;;;;;;35.38;16.05;;;;;;;20.09;66.59;100167.59;5027286;28;20057;-71
2022/08/08 04:32:03;;;;;;;65.35;17.38;;;;;;;19.95;66.74;100167.13;5024776;28;20042;-72
2022/08/08 04:34:33;;;;;;;34.88;15.10;;;;;;;19.98;66.90;100166.44;5015583;28;20054;-72
2022/08/08 04:37:20;;;;;;;35.00;14.13;;;;;;;19.97;66.63;100169.63;5027237;28;20136;-72
2022/08/08 04:39:58;;;;;;;45.63;15.60;;;;;;;19.97;66.73;100167.63;5025823;28;20200;-72
2022/08/08 04:42:32;;;;;;;37.00;16.27;;;;;;;20.02;66.76;100160.88;5029735;28;20045;-72
2022/08/08 04:45:04;;;;;;;48.45;16.33;;;;;;;20.22;66.48;100176.13;5028807;28;20050;-72
2022/08/08 04:47:32;;;;;;;42.03;16.80;;;;;;;20.05;66.62;100148.84;5027294;28;20060;-73
2022/08/08 04:50:11;;;;;;;44.05;16.98;;;;;;;20.01;66.01;100140.22;5027303;28;20072;-73
2022/08/08 04:52:52;;;;;;;36.45;16.45;;;;;;;19.94;66.15;100128.66;5027614;28;20053;-72
2022/08/08 04:55:31;;;;;;;37.05;16.02;;;;;;;20.15;66.26;100168.22;5028740;28;20057;-72
2022/08/08 04:58:18;;;;;;;43.13;16.73;;;;;;;20.28;66.36;100186.06;5022401;28;20050;-72
2022/08/08 05:00:47;;;;;;;82.38;16.15;;;;;;;20.28;66.11;100188.91;5016176;28;20454;-72
2022/08/08 05:03:16;;;;;;;47.70;17.25;;;;;;;20.11;66.13;100173.75;5028475;28;20045;-72
2022/08/08 05:06:03;;;;;;;57.22;18.40;;;;;;;20.12;66.31;100183.09;5024741;28;20041;-72
2022/08/08 05:08:44;;;;;;;42.75;17.13;;;;;;;20.11;66.49;100187.94;5030329;28;20453;-72
2022/08/08 05:11:18;;;;;;;34.22;15.45;;;;;;;20.01;66.68;100171.41;5028056;28;20106;-72
2022/08/08 05:13:48;;;;;;;43.15;15.77;;;;;;;19.79;66.55;100154.84;5020152;28;20140;-71
2022/08/08 05:16:28;;;;;;;38.40;17.23;;;;;;;20.04;66.42;100182.03;5027248;28;20049;-72
2022/08/08 05:19:15;;;;;;;41.45;16.83;;;;;;;19.99;66.62;100192.78;5026556;28;20037;-72
2022/08/08 05:22:01;;;;;;;39.42;16.50;;;;;;;19.73;66.71;100170.44;5031894;28;20061;-71
2022/08/08 05:24:28;;;;;;;37.92;16.40;;;;;;;20.05;66.81;100217.69;5034143;28;20135;-71
2022/08/08 05:26:57;;;;;;;53.63;17.20;;;;;;;20.13;66.36;100213.91;5030440;28;20053;-71
2022/08/08 05:29:25;;;;;;;42.88;17.95;;;;;;;20.06;66.69;100212.84;5032064;28;20077;-71
2022/08/08 05:31:55;;;;;;;38.58;16.92;;;;;;;19.45;66.51;100103.06;5036157;28;20523;-70
2022/08/08 05:34:45;;;;;;;41.38;17.90;;;;;;;20.09;66.49;100218.63;5038401;28;20092;-70
2022/08/08 05:37:17;;;;;;;45.13;17.45;;;;;;;19.96;66.46;100197.13;5035674;28;20096;-71
2022/08/08 05:39:49;;;;;;;45.95;17.25;;;;;;;19.95;66.62;100203.97;5031955;28;20045;-71
2022/08/08 05:42:22;;;;;;;43.42;17.10;;;;;;;19.96;66.43;100187.81;5031099;28;20049;-71
2022/08/08 05:44:56;;;;;;;41.50;17.63;;;;;;;20.13;66.33;100225.25;5030815;28;20081;-70
2022/08/08 05:47:26;;;;;;;56.45;17.90;;;;;;;20.07;66.52;100245.72;5027397;28;20053;-71
2022/08/08 05:50:13;;;;;;;38.72;17.27;;;;;;;19.97;66.51;100237.66;5032207;28;20055;-71
2022/08/08 05:52:42;;;;;;;42.88;18.45;;;;;;;19.90;66.72;100241.06;5025233;28;20045;-71
2022/08/08 05:55:09;;;;;;;48.10;18.27;;;;;;;19.97;66.74;100252.66;5027467;28;20041;-72
2022/08/08 05:57:41;;;;;;;45.53;18.02;;;;;;;19.71;66.64;100203.94;5030170;28;20049;-81
2022/08/08 06:00:32;;;;;;;35.13;16.75;;;;;;;19.82;66.60;100202.31;5027340;28;20057;-71
2022/08/08 06:03:10;;;;;;;39.15;17.27;;;;;;;20.03;66.59;100230.56;5027815;28;20041;-70
2022/08/08 06:06:08;;;;;;;42.45;17.42;;;;;;;20.06;66.48;100247.69;5022511;28;20057;-71
2022/08/08 06:08:48;;;;;;;43.13;16.63;;;;;;;20.13;66.58;100233.75;5038719;28;20081;-73
2022/08/08 06:11:21;;;;;;;44.80;17.02;;;;;;;20.19;66.39;100233.53;5031580;28;20060;-71
2022/08/08 06:13:53;;;;;;;37.13;16.63;;;;;;;20.16;66.30;100246.41;5026068;28;20054;-71
2022/08/08 06:16:20;;;;;;;41.38;16.65;;;;;;;20.16;66.20;100256.91;5031786;28;20091;-71
2022/08/08 06:18:59;;;;;;;38.40;16.58;;;;;;;19.98;66.53;100242.97;5026873;28;20045;-72
2022/08/08 06:21:30;;;;;;;35.95;16.05;;;;;;;19.98;66.50;100248.63;5027823;28;20057;-70
2022/08/08 06:24:17;;;;;;;42.55;17.58;;;;;;;19.74;66.42;100217.41;5026830;28;20144;-75
2022/08/08 06:27:02;;;;;;;49.17;18.50;;;;;;;20.05;66.62;100254.53;5028716;28;20435;-75
2022/08/08 06:29:54;;;;;;;40.58;15.85;;;;;;;20.05;66.59;100257.38;5028345;28;20050;-72
2022/08/08 06:32:30;;;;;;;37.33;16.60;;;;;;;20.10;66.50;100257.16;5027631;28;20057;-74
2022/08/08 06:35:08;;;;;;;44.42;19.00;;;;;;;19.92;66.46;100235.84;5028318;28;20154;-73
2022/08/08 06:38:03;;;;;;;35.15;16.55;;;;;;;20.08;66.63;100265.19;5028341;28;20139;-72
2022/08/08 06:40:35;;;;;;;44.47;17.35;;;;;;;19.98;66.74;100257.13;5021995;28;20064;-73
2022/08/08 06:43:07;;;;;;;42.70;16.27;;;;;;;20.07;66.80;100243.69;5023430;28;20131;-73
2022/08/08 06:45:38;;;;;;;38.70;15.77;;;;;;;20.36;66.50;100267.34;5024538;28;20049;-73
2022/08/08 06:48:06;;;;;;;37.05;16.38;;;;;;;19.86;66.11;100178.59;5020107;28;20052;-75
2022/08/08 06:50:35;;;;;;;40.95;17.02;;;;;;;20.25;65.92;100237.81;5024221;28;20046;-72
2022/08/08 06:53:07;;;;;;;36.40;15.75;;;;;;;20.58;65.72;100260.38;5026089;28;20057;-71
2022/08/08 06:55:40;;;;;;;39.33;15.98;;;;;;;20.51;65.38;100258.16;5028423;28;20073;-70
2022/08/08 06:58:08;;;;;;;36.53;16.42;;;;;;;20.42;65.74;100270.78;5027286;28;20544;-70
2022/08/08 07:00:41;;;;;;;34.25;16.48;;;;;;;20.55;65.82;100272.47;5029380;28;20059;-71
2022/08/08 07:03:16;;;;;;;37.30;16.10;;;;;;;20.49;65.71;100269.00;5029107;28;20102;-70
2022/08/08 07:06:08;;;;;;;40.30;16.15;;;;;;;20.33;65.77;100228.34;5028587;28;20089;-70
2022/08/08 07:08:37;;;;;;;35.90;16.75;;;;;;;20.22;65.49;100216.66;5030097;28;20104;-69
2022/08/08 07:11:08;;;;;;;31.25;15.07;;;;;;;20.49;65.34;100274.66;5042965;28;20059;-70
2022/08/08 07:13:52;;;;;;;33.88;15.65;;;;;;;20.27;65.73;100232.59;5023613;28;20118;-70
2022/08/08 07:17:00;;;;;;;34.28;15.20;;;;;;;20.56;65.65;100266.44;5027616;28;20736;-70
2022/08/08 07:19:30;;;;;;;33.72;15.68;;;;;;;20.73;65.59;100287.22;5001972;28;20115;-69
2022/08/08 07:22:06;;;;;;;34.30;16.02;;;;;;;20.82;65.54;100287.94;5025662;28;20093;-70
2022/08/08 07:24:57;;;;;;;42.85;18.02;;;;;;;20.99;65.29;100286.81;5027468;28;20085;-69
2022/08/08 07:27:26;;;;;;;35.78;15.85;;;;;;;20.75;65.34;100248.81;5020053;28;20075;-70
2022/08/08 07:30:13;;;;;;;36.90;16.65;;;;;;;21.11;64.72;100298.16;5025227;28;20379;-69
2022/08/08 07:32:48;;;;;;;37.45;16.25;;;;;;;21.19;64.88;100296.38;5028315;28;20255;-68
2022/08/08 07:35:16;;;;;;;44.20;18.50;;;;;;;21.25;64.72;100297.78;5025549;28;20524;-67
2022/08/08 07:37:45;;;;;;;49.40;20.98;;;;;;;21.30;64.69;100294.72;5025930;28;20103;-67
2022/08/08 07:40:31;;;;;;;52.17;23.98;;;;;;;21.44;64.47;100292.31;5028014;28;20049;-67
2022/08/08 07:43:02;;;;;;;43.00;19.13;;;;;;;21.64;64.09;100306.66;5026548;28;20053;-67
2022/08/08 07:45:30;;;;;;;45.72;21.35;;;;;;;21.80;64.06;100307.56;5044144;28;20049;-67
2022/08/08 07:48:17;;;;;;;36.65;16.50;;;;;;;21.73;63.82;100213.56;5028233;28;20045;-67
2022/08/08 07:50:46;;;;;;;33.00;15.65;;;;;;;22.73;63.38;100298.66;5019639;28;20053;-67
2022/08/08 07:53:20;;;;;;;34.60;16.52;;;;;;;22.74;62.53;100253.97;5026996;28;20052;-67
2022/08/08 07:56:09;;;;;;;34.35;16.05;;;;;;;23.34;61.49;100298.06;5020265;28;20053;-68
2022/08/08 07:58:41;;;;;;;33.10;15.52;;;;;;;23.53;61.65;100291.56;5025135;28;20068;-67
2022/08/08 08:01:12;;;;;;;29.15;13.98;;;;;;;24.08;60.89;100288.63;5022884;28;20057;-66
2022/08/08 08:03:49;;;;;;;26.92;14.27;;;;;;;24.56;60.40;100297.66;5019325;28;20089;-67
2022/08/08 08:06:19;;;;;;;30.67;14.18;;;;;;;25.06;59.14;100296.44;5019472;28;20045;-67
2022/08/08 08:08:53;;;;;;;28.75;13.73;;;;;;;25.37;58.12;100299.31;5023222;28;20049;-67
2022/08/08 08:11:22;;;;;;;26.63;14.38;;;;;;;25.60;57.40;100305.75;5025696;28;20564;-68
2022/08/08 08:14:15;;;;;;;28.45;14.50;;;;;;;25.50;56.86;100232.13;5024404;28;20052;-67
2022/08/08 08:16:44;;;;;;;28.92;14.65;;;;;;;25.80;56.72;100285.63;5021045;28;20103;-67
2022/08/08 08:19:16;;;;;;;31.52;17.25;;;;;;;26.13;55.89;100302.75;5023090;28;20045;-68
2022/08/08 08:22:19;;;;;;;30.67;15.75;;;;;;;26.22;55.52;100251.75;5024645;28;20064;-69
2022/08/08 08:24:59;;;;;;;30.75;14.32;;;;;;;26.32;54.91;100300.88;5020295;28;20049;-69
2022/08/08 08:27:34;;;;;;;33.47;14.98;;;;;;;26.09;55.09;100304.75;5039120;28;20084;-69
2022/08/08 08:30:03;;;;;;;34.75;13.70;;;;;;;26.34;54.68;100307.06;5025200;28;20506;-69
2022/08/08 08:32:32;;;;;;;33.20;15.85;;;;;;;26.32;53.91;100283.72;5040982;28;20061;-69
2022/08/08 08:35:17;;;;;;;30.23;16.00;;;;;;;25.85;53.79;100217.44;5027842;28;20049;-69
2022/08/08 08:37:55;;;;;;;27.93;14.73;;;;;;;25.92;54.01;100236.72;5022356;28;20049;-69
2022/08/08 08:40:43;;;;;;;35.63;16.23;;;;;;;26.65;53.31;100297.13;5021308;28;20286;-68
2022/08/08 08:43:17;;;;;;;30.02;15.35;;;;;;;26.98;52.74;100306.81;5022237;28;20050;-69
2022/08/08 08:45:47;;;;;;;28.15;12.73;;;;;;;27.35;52.61;100300.91;5026763;28;20423;-69
2022/08/08 08:48:18;;;;;;;29.52;15.88;;;;;;;27.75;51.60;100308.47;5020615;28;20215;-68
2022/08/08 08:50:50;;;;;;;33.83;15.43;;;;;;;28.14;50.98;100295.50;5023274;28;20064;-68
2022/08/08 08:53:18;;;;;;;28.17;15.05;;;;;;;28.23;50.54;100262.31;5025588;28;20045;-67
2022/08/08 08:56:06;;;;;;;30.75;15.10;;;;;;;28.34;49.63;100259.44;5027962;28;20064;-68
2022/08/08 08:58:45;;;;;;;33.33;17.45;;;;;;;28.49;49.93;100306.28;5029385;28;20107;-69
2022/08/08 09:01:26;;;;;;;31.75;16.13;;;;;;;28.57;49.19;100305.03;5028233;28;20057;-67
2022/08/08 09:04:00;;;;;;;33.50;16.77;;;;;;;28.33;48.88;100286.53;5027009;28;20237;-68
2022/08/08 09:06:36;;;;;;;31.58;16.73;;;;;;;28.22;48.67;100275.03;5028687;28;20060;-68
2022/08/08 09:09:20;;;;;;;37.72;14.45;;;;;;;28.21;48.39;100261.09;5025474;28;20053;-68
2022/08/08 09:12:09;;;;;;;40.65;17.40;;;;;;;27.37;49.59;100218.19;5031311;28;20528;-68
2022/08/08 09:14:38;;;;;;;36.60;17.73;;;;;;;27.74;49.09;100303.97;5027986;28;20888;-68
2022/08/08 09:17:12;;;;;;;31.38;16.77;;;;;;;28.05;48.58;100316.81;5026935;28;20052;-68
2022/08/08 09:19:45;;;;;;;31.00;13.68;;;;;;;28.35;48.29;100307.06;5027927;28;20144;-67
2022/08/08 09:22:33;;;;;;;32.05;14.63;;;;;;;28.60;47.73;100323.50;5023054;28;20063;-67
2022/08/08 09:25:02;;;;;;;33.10;15.95;;;;;;;28.70;47.45;100314.06;5020385;28;20060;-67
2022/08/08 09:27:30;;;;;;;28.70;14.27;;;;;;;28.98;47.01;100324.75;5028567;28;20056;-66
2022/08/08 09:30:17;;;;;;;26.77;15.85;;;;;;;28.60;46.36;100231.59;5020626;28;20508;-68
2022/08/08 09:32:53;;;;;;;29.27;14.48;;;;;;;29.04;46.64;100309.56;5023492;28;20464;-67
2022/08/08 09:35:46;;;;;;;35.25;15.07;;;;;;;28.81;46.30;100300.53;5027854;28;20049;-68
2022/08/08 09:38:52;;;;;;;26.95;14.63;;;;;;;28.70;46.86;100312.03;5022532;28;20522;-67
2022/08/08 09:41:35;;;;;;;22.90;12.25;;;;;;;29.05;46.67;100316.94;5020197;28;20056;-65
2022/08/08 09:44:57;;;;;;;25.95;12.98;;;;;;;29.27;46.85;100283.22;5026173;28;20057;-67
2022/08/08 09:47:41;;;;;;;27.40;15.50;;;;;;;29.50;46.00;100308.66;5028546;28;20060;-66
2022/08/08 09:50:29;;;;;;;27.42;15.57;;;;;;;29.31;45.52;100303.34;5029133;28;20156;-66
2022/08/08 09:53:02;;;;;;;29.13;13.68;;;;;;;28.89;45.64;100261.94;5041072;28;20045;-67
2022/08/08 09:55:49;;;;;;;24.80;13.55;;;;;;;29.41;45.11;100311.13;5024834;28;20053;-66
2022/08/08 09:58:40;;;;;;;24.88;12.65;;;;;;;29.60;45.35;100309.03;5027640;28;20084;-67
2022/08/08 10:01:11;;;;;;;22.30;11.90;;;;;;;29.71;45.32;100307.78;5023201;28;20058;-66
2022/08/08 10:04:00;;;;;;;24.60;13.20;;;;;;;30.06;44.18;100303.06;5028563;28;20049;-66
2022/08/08 10:06:30;;;;;;;18.50;9.98;;;;;;;29.91;44.34;100270.66;5028696;28;20105;-66
2022/08/08 10:08:58;;;;;;;18.88;9.77;;;;;;;30.36;44.01;100310.31;5030014;28;20635;-66
2022/08/08 10:11:25;;;;;;;19.88;10.95;;;;;;;30.70;43.31;100322.00;5025423;28;20053;-67
2022/08/08 10:14:12;;;;;;;19.23;10.45;;;;;;;30.51;43.13;100280.16;5026139;28;20515;-67
2022/08/08 10:17:02;;;;;;;15.63;9.45;;;;;;;30.85;42.82;100317.78;5021511;28;20049;-67
2022/08/08 10:19:55;;;;;;;13.23;7.90;;;;;;;30.50;43.50;100323.81;5023223;28;20092;-67
2022/08/08 10:22:26;;;;;;;18.38;9.13;;;;;;;30.16;42.79;100315.78;5025008;28;20520;-67
2022/08/08 10:25:04;;;;;;;;;;;;;;;29.11;45.47;100325.16;5023729;28;20119;-67
2022/08/08 10:27:41;;;;;;;16.65;8.95;;;;;;;29.09;45.01;100324.75;5020716;28;20358;-68
2022/08/08 10:30:10;;;;;;;14.25;9.32;;;;;;;29.34;43.91;100318.97;5022925;28;20465;-66
2022/08/08 10:32:58;;;;;;;16.33;8.52;;;;;;;29.62;44.08;100333.28;5019897;28;20058;-67
2022/08/08 10:35:31;;;;;;;;;;;;;;;29.42;45.13;100329.22;5024777;28;20053;-71
2022/08/08 10:38:18;;;;;;;15.40;7.80;;;;;;;29.53;44.34;100299.16;5017783;28;20384;-69
2022/08/08 10:40:50;;;;;;;13.98;8.20;;;;;;;29.98;43.08;100333.97;5023836;28;21189;-68
2022/08/08 10:43:19;;;;;;;16.25;8.63;;;;;;;29.51;43.35;100251.94;5024638;28;22197;-68
2022/08/08 10:45:49;;;;;;;13.73;8.02;;;;;;;30.26;42.33;100343.72;5024075;28;20433;-66
2022/08/08 10:48:34;;;;;;;12.07;6.60;;;;;;;30.31;42.67;100337.50;5023769;28;20060;-66
2022/08/08 10:51:26;;;;;;;9.48;6.43;;;;;;;30.51;41.80;100340.66;5023828;28;20498;-68
2022/08/08 10:54:06;;;;;;;13.38;7.32;;;;;;;29.98;42.11;100292.81;5026278;28;20049;-73
2022/08/08 10:56:34;;;;;;;11.85;7.25;;;;;;;29.79;42.43;100253.88;5030010;28;20049;-67
2022/08/08 10:59:09;;;;;;;11.48;7.03;;;;;;;30.28;42.36;100328.88;5035029;28;20055;-67
2022/08/08 11:01:45;;;;;;;14.32;6.32;;;;;;;30.33;42.17;100334.22;5023578;28;20055;-67
2022/08/08 11:04:21;;;;;;;11.40;5.07;;;;;;;30.55;42.22;100347.22;5023461;28;20426;-69
2022/08/08 11:07:05;;;;;;;9.68;5.07;;;;;;;30.58;41.32;100345.56;5026397;28;20156;-68
2022/08/08 11:09:32;;;;;;;9.23;4.80;;;;;;;30.27;41.24;100276.22;5046393;28;20599;-67
2022/08/08 11:12:01;;;;;;;9.40;5.25;;;;;;;31.19;40.37;100359.50;5025508;28;20053;-68
2022/08/08 11:14:52;;;;;;;7.18;4.57;;;;;;;31.05;39.72;100277.66;5024851;28;20080;-67
2022/08/08 11:17:22;;;;;;;8.48;5.10;;;;;;;31.17;39.68;100299.34;5027839;28;20077;-69
2022/08/08 11:20:17;;;;;;;6.43;3.53;;;;;;;31.47;40.55;100341.91;5022721;28;20140;-69
2022/08/08 11:22:55;;;;;;;7.30;4.07;;;;;;;31.36;40.26;100336.28;5023366;28;20045;-67
2022/08/08 11:25:26;;;;;;;8.10;3.97;;;;;;;31.01;40.48;100340.31;5026094;28;20155;-67
2022/08/08 11:28:21;;;;;;;6.03;3.00;;;;;;;31.20;40.38;100327.34;5022011;28;20071;-68
2022/08/08 11:30:55;;;;;;;5.07;3.50;;;;;;;31.08;39.78;100296.16;5022592;28;20079;-67
2022/08/08 11:33:26;;;;;;;5.40;3.38;;;;;;;31.19;39.34;100337.25;5022536;28;20060;-68
2022/08/08 11:36:13;;;;;;;5.25;3.17;;;;;;;30.84;40.20;100339.22;5025080;28;20061;-67
2022/08/08 11:38:41;;;;;;;5.60;3.60;;;;;;;30.73;40.79;100344.19;5026338;28;20060;-68
2022/08/08 11:41:26;;;;;;;5.97;3.03;;;;;;;30.98;39.98;100332.50;5026995;28;20049;-66
2022/08/08 11:44:00;;;;;;;6.10;3.70;;;;;;;30.73;39.67;100275.03;5019860;28;20075;-68
2022/08/08 11:46:29;;;;;;;6.55;3.20;;;;;;;31.38;39.24;100351.09;5021596;28;20057;-68
2022/08/08 11:49:06;;;;;;;6.68;3.33;;;;;;;30.89;39.92;100320.63;5020619;28;20049;-66
2022/08/08 11:51:51;;;;;;;5.90;3.00;;;;;;;30.99;39.78;100310.25;5018451;28;20498;-68
2022/08/08 11:54:33;;;;;;;4.55;3.17;;;;;;;31.47;39.47;100338.22;5021057;28;20409;-69
2022/08/08 11:57:18;;;;;;;5.53;2.80;;;;;;;31.99;39.23;100349.56;5022749;28;20060;-68
2022/08/08 11:59:58;;;;;;;6.03;4.05;;;;;;;31.92;38.34;100269.63;5019901;28;20469;-68
2022/08/08 12:02:31;;;;;;;5.53;3.83;;;;;;;32.62;37.80;100352.84;5021405;28;20049;-69
2022/08/08 12:05:10;;;;;;;7.05;4.10;;;;;;;32.98;37.30;100341.50;5023807;28;20045;-68
2022/08/08 12:07:54;;;;;;;9.07;4.30;;;;;;;33.23;37.20;100340.25;5025309;28;20495;-68
2022/08/08 12:10:24;;;;;;;7.82;4.40;;;;;;;33.57;36.15;100296.59;5016217;28;20046;-68
2022/08/08 12:13:11;;;;;;;6.78;4.25;;;;;;;34.62;35.24;100343.16;5019419;28;21259;-68
2022/08/08 12:15:47;;;;;;;8.88;4.50;;;;;;;35.04;34.22;100343.34;5022881;28;20053;-67
2022/08/08 12:18:18;;;;;;;5.50;3.80;;;;;;;35.01;33.84;100347.19;5026606;28;20513;-68
2022/08/08 12:20:53;;;;;;;6.18;3.50;;;;;;;34.96;33.17;100309.16;5022525;28;20052;-67